Time;durP1;ratioP1;P1;durP2;ratioP2;P2;SDS_P1;SDS_P2;PMS_P1;PMS_P2;Temp;Humidity;BMP_temperature;BMP_pressure;BME280_temperature;BME280_humidity;BME280_pressure;Samples;Min_cycle;Max_cycle;Signal;HPM_P1;HPM_P2
2023/05/26 00:01:09;;;;;;;7.80;6.05;;;;;;;15.70;100.00;98168.16;5138851;28;20382;-61
2023/05/26 00:03:35;;;;;;;10.05;6.00;;;;;;;15.70;100.00;98173.69;5138851;28;20429;-54
2023/05/26 00:06:01;;;;;;;8.02;5.35;;;;;;;15.72;100.00;98179.53;5138733;27;20083;-57
2023/05/26 00:08:27;;;;;;;10.73;6.38;;;;;;;15.67;100.00;98171.75;5138673;27;20065;-61
2023/05/26 00:10:53;;;;;;;12.48;6.07;;;;;;;15.64;100.00;98164.28;5138886;28;20074;-64
2023/05/26 00:13:19;;;;;;;12.82;6.50;;;;;;;15.61;100.00;98171.44;5139028;28;20443;-62
2023/05/26 00:15:45;;;;;;;11.73;5.85;;;;;;;15.58;100.00;98163.97;5139651;28;20047;-58
2023/05/26 00:18:11;;;;;;;8.02;5.82;;;;;;;15.54;100.00;98166.81;5139585;28;20043;-59
2023/05/26 00:20:37;;;;;;;7.93;5.38;;;;;;;15.52;100.00;98171.19;5138491;28;20055;-56
2023/05/26 00:23:03;;;;;;;8.68;6.05;;;;;;;15.51;100.00;98173.19;5138735;28;20057;-54
2023/05/26 00:25:29;;;;;;;6.65;5.97;;;;;;;15.50;100.00;98176.38;5138510;28;20047;-54
2023/05/26 00:27:55;;;;;;;13.43;6.43;;;;;;;15.43;100.00;98177.28;5138457;27;20066;-55
2023/05/26 00:30:21;;;;;;;9.10;6.20;;;;;;;15.49;100.00;98164.56;5138404;28;20047;-58
2023/05/26 00:32:47;;;;;;;10.48;6.30;;;;;;;15.50;100.00;98176.38;5138201;28;20325;-63
2023/05/26 00:35:13;;;;;;;8.93;5.78;;;;;;;15.42;100.00;98180.44;5138098;27;20055;-62
2023/05/26 00:37:40;;;;;;;9.25;5.88;;;;;;;15.30;100.00;98181.84;5138211;28;20110;-64
2023/05/26 00:40:07;;;;;;;12.75;6.72;;;;;;;15.41;100.00;98182.44;5138387;28;20083;-59
2023/05/26 00:42:33;;;;;;;12.50;6.07;;;;;;;15.41;100.00;98176.91;5138133;28;20051;-62
2023/05/26 00:44:59;;;;;;;8.65;6.25;;;;;;;15.38;100.00;98186.03;5138395;28;20085;-62
2023/05/26 00:47:25;;;;;;;10.90;6.38;;;;;;;15.38;100.00;98185.25;5138205;28;20051;-58
2023/05/26 00:49:52;;;;;;;8.18;6.10;;;;;;;15.37;100.00;98187.25;5138137;27;20051;-58
2023/05/26 00:52:19;;;;;;;13.27;5.90;;;;;;;15.41;100.00;98187.19;5137916;28;20176;-56
2023/05/26 00:54:46;;;;;;;14.93;6.45;;;;;;;15.27;100.00;98185.44;5138142;28;20183;-64
2023/05/26 00:57:12;;;;;;;8.82;6.40;;;;;;;15.43;100.00;98182.03;5137992;28;20055;-63
2023/05/26 00:59:38;;;;;;;10.00;6.47;;;;;;;15.32;100.00;98186.94;5137949;28;20310;-58
2023/05/26 01:02:04;;;;;;;9.73;6.35;;;;;;;15.29;100.00;98185.78;5138023;28;20051;-55
2023/05/26 01:04:31;;;;;;;8.75;6.38;;;;;;;15.38;100.00;98185.25;5138070;28;20154;-58
2023/05/26 01:06:57;;;;;;;8.35;6.20;;;;;;;15.50;100.00;98173.63;5137649;27;20405;-54
2023/05/26 01:09:24;;;;;;;9.85;6.53;;;;;;;15.50;100.00;98173.63;5138168;28;20078;-61
2023/05/26 01:11:58;;;;;;;11.65;6.55;;;;;;;15.48;100.00;98170.47;5137989;28;20324;-59
2023/05/26 01:14:30;;;;;;;17.00;5.82;;;;;;;15.59;100.00;98167.53;5137557;28;20404;-60
2023/05/26 01:17:01;;;;;;;11.10;6.63;;;;;;;15.61;100.00;98165.13;5137935;28;20138;-57
2023/05/26 01:20:09;;;;;;;8.65;5.65;;;;;;;15.43;100.00;98169.00;5137892;28;20409;-55
2023/05/26 01:23:10;;;;;;;7.78;6.32;;;;;;;15.58;100.00;98169.50;5110383;28;20370;-59
2023/05/26 01:25:45;;;;;;;10.82;6.50;;;;;;;15.53;100.00;98170.78;5117464;28;20089;-64
2023/05/26 01:28:16;;;;;;;6.10;5.20;;;;;;;15.57;100.00;98175.47;5137723;28;20104;-64
2023/05/26 01:30:43;;;;;;;7.82;5.85;;;;;;;15.52;100.00;98171.97;5137837;28;20138;-54
2023/05/26 01:33:09;;;;;;;6.53;5.55;;;;;;;15.48;100.00;98171.25;5137640;28;20047;-54
2023/05/26 01:35:35;;;;;;;7.97;5.97;;;;;;;15.36;100.00;98182.94;5137366;27;20054;-54
2023/05/26 01:38:03;;;;;;;8.85;6.50;;;;;;;15.26;100.00;98187.44;5137301;28;20137;-62
2023/05/26 01:40:29;;;;;;;10.93;5.82;;;;;;;15.19;100.00;98192.28;5137293;28;20133;-54
2023/05/26 01:43:01;;;;;;;19.33;6.20;;;;;;;15.09;100.00;98215.31;5137200;28;20055;-62
2023/05/26 01:45:33;;;;;;;10.25;6.85;;;;;;;14.97;100.00;98242.28;5137562;28;20058;-58
2023/05/26 01:48:02;;;;;;;17.10;6.95;;;;;;;14.95;100.00;98261.25;5143288;27;20145;-62
2023/05/26 01:50:33;;;;;;;11.98;6.20;;;;;;;14.87;100.00;98264.53;5144217;27;20336;-54
2023/05/26 01:53:05;;;;;;;15.30;6.68;;;;;;;14.99;100.00;98266.72;5144131;27;20080;-54
2023/05/26 01:55:32;;;;;;;11.00;6.25;;;;;;;15.05;100.00;98252.03;5144079;27;20073;-64
2023/05/26 01:57:59;;;;;;;9.15;6.57;;;;;;;15.01;100.00;98256.03;5144012;27;20043;-63
2023/05/26 02:00:26;;;;;;;9.35;5.88;;;;;;;15.01;100.00;98256.81;5143902;27;20133;-64
2023/05/26 02:02:53;;;;;;;9.55;6.00;;;;;;;15.00;100.00;98269.06;5143911;27;20055;-58
2023/05/26 02:05:19;;;;;;;9.85;6.45;;;;;;;15.02;100.00;98276.91;5143809;27;20127;-58
2023/05/26 02:07:46;;;;;;;8.55;5.72;;;;;;;14.98;100.00;98284.47;5143843;27;20411;-56
2023/05/26 02:10:12;;;;;;;8.65;6.03;;;;;;;15.07;100.00;98277.25;5144320;27;20164;-53
2023/05/26 02:12:38;;;;;;;6.88;6.13;;;;;;;15.20;100.00;98260.13;5143689;27;20061;-55
2023/05/26 02:15:05;;;;;;;9.63;5.95;;;;;;;15.23;100.00;98248.25;5144122;27;20137;-55
2023/05/26 02:17:31;;;;;;;7.93;5.70;;;;;;;15.14;100.00;98245.22;5143886;27;20046;-59
2023/05/26 02:19:57;;;;;;;8.23;5.82;;;;;;;15.35;100.00;98239.34;5143799;27;20393;-61
2023/05/26 02:22:23;;;;;;;8.70;5.88;;;;;;;15.39;100.00;98228.25;5143745;27;20061;-58
2023/05/26 02:24:49;;;;;;;10.75;6.28;;;;;;;15.44;100.00;98225.00;5143621;27;20047;-62
2023/05/26 02:27:16;;;;;;;10.00;6.75;;;;;;;15.53;100.00;98211.44;5143586;27;20130;-64
2023/05/26 02:29:42;;;;;;;7.13;5.22;;;;;;;15.56;100.00;98207.84;5143923;27;20054;-58
2023/05/26 02:32:07;;;;;;;9.30;5.63;;;;;;;15.52;100.00;98207.88;5143694;27;20074;-61
2023/05/26 02:34:33;;;;;;;8.40;6.03;;;;;;;15.56;100.00;98220.84;5143481;27;20452;-64
2023/05/26 02:37:19;;;;;;;9.20;5.72;;;;;;;15.72;100.00;98205.19;5143317;27;20058;-62
2023/05/26 02:39:45;;;;;;;12.95;6.03;;;;;;;15.73;100.00;98203.22;5143635;27;20381;-55
2023/05/26 02:42:11;;;;;;;11.05;5.68;;;;;;;15.95;100.00;98200.81;5143537;27;20043;-54
2023/05/26 02:44:37;;;;;;;8.00;6.00;;;;;;;15.98;100.00;98195.22;5143569;27;20047;-60
2023/05/26 02:47:03;;;;;;;16.45;6.45;;;;;;;16.25;100.00;98186.00;5143478;27;20047;-61
2023/05/26 02:49:29;;;;;;;9.07;5.60;;;;;;;16.52;100.00;98179.53;5143369;27;20141;-58
2023/05/26 02:51:55;;;;;;;11.45;5.63;;;;;;;16.45;100.00;98185.97;5143383;27;20133;-56
2023/05/26 02:54:21;;;;;;;11.55;7.70;;;;;;;16.54;100.00;98191.72;5143122;27;20078;-54
2023/05/26 02:56:47;;;;;;;12.50;5.75;;;;;;;16.58;100.00;98197.19;5143258;27;20409;-55
2023/05/26 02:59:13;;;;;;;7.57;5.45;;;;;;;16.61;100.00;98193.56;5140379;27;20147;-55
2023/05/26 03:01:39;;;;;;;9.70;5.90;;;;;;;16.66;100.00;98201.34;5139796;28;20138;-53
2023/05/26 03:04:05;;;;;;;9.32;5.80;;;;;;;16.69;100.00;98211.53;5139967;28;20081;-59
2023/05/26 03:06:32;;;;;;;20.10;7.07;;;;;;;16.91;100.00;98209.13;5139895;27;20062;-62
2023/05/26 03:08:58;;;;;;;8.52;5.85;;;;;;;17.03;100.00;98227.84;5139644;28;20054;-58
2023/05/26 03:11:25;;;;;;;10.88;5.88;;;;;;;17.13;100.00;98231.56;5139678;28;20051;-64
2023/05/26 03:13:50;;;;;;;8.55;5.90;;;;;;;17.34;100.00;98233.81;5139835;28;20123;-58
2023/05/26 03:16:16;;;;;;;10.15;5.68;;;;;;;17.33;100.00;98234.25;5139628;28;20452;-55
2023/05/26 03:18:42;;;;;;;10.65;6.15;;;;;;;17.26;100.00;98235.22;5139653;28;20051;-57
2023/05/26 03:21:09;;;;;;;8.60;5.72;;;;;;;17.51;100.00;98261.53;5139539;28;20043;-53
2023/05/26 03:23:35;;;;;;;12.90;6.18;;;;;;;17.42;100.00;98257.34;5139558;28;20051;-58
2023/05/26 03:26:01;;;;;;;8.25;5.65;;;;;;;17.63;100.00;98263.59;5139440;28;20357;-61
2023/05/26 03:28:28;;;;;;;9.77;5.38;;;;;;;17.47;100.00;98261.59;5139306;28;20051;-53
2023/05/26 03:30:54;;;;;;;7.10;5.65;;;;;;;17.62;100.00;98256.47;5139323;27;20412;-55
2023/05/26 03:33:20;;;;;;;6.30;5.55;;;;;;;17.41;100.00;98236.41;5139195;28;20047;-53
2023/05/26 03:35:46;;;;;;;8.90;6.32;;;;;;;17.44;100.00;98236.75;5139419;27;20100;-54
2023/05/26 03:38:12;;;;;;;10.57;7.15;;;;;;;17.50;100.00;98235.81;5139414;28;20078;-55
2023/05/26 03:40:38;;;;;;;10.02;6.05;;;;;;;17.43;100.00;98219.38;5139177;28;20409;-56
2023/05/26 03:43:04;;;;;;;10.15;6.25;;;;;;;17.43;100.00;98224.91;5139300;28;20058;-53
2023/05/26 03:45:30;;;;;;;10.07;7.65;;;;;;;17.71;100.00;98242.78;5139114;28;20443;-55
2023/05/26 03:47:56;;;;;;;13.30;6.38;;;;;;;17.96;100.00;98263.56;5139057;28;20416;-54
2023/05/26 03:50:22;;;;;;;12.55;6.38;;;;;;;18.02;100.00;98270.13;5138983;28;20074;-54
2023/05/26 03:52:48;;;;;;;9.35;7.47;;;;;;;18.63;100.00;98332.34;5139039;28;20047;-56
2023/05/26 03:55:17;;;;;;;15.00;6.65;;;;;;;18.79;100.00;98366.41;5138977;28;20051;-58
2023/05/26 03:57:43;;;;;;;11.93;7.50;;;;;;;19.30;100.00;98429.63;5138837;28;20328;-61
2023/05/26 04:00:11;;;;;;;10.05;6.30;;;;;;;19.47;100.00;98495.03;5138874;28;20043;-56
2023/05/26 04:02:37;;;;;;;7.95;5.80;;;;;;;19.45;100.00;98505.81;5138817;28;20328;-55
2023/05/26 04:05:04;;;;;;;7.18;5.50;;;;;;;19.73;100.00;98528.50;5138917;27;20131;-58
2023/05/26 04:07:30;;;;;;;12.13;7.38;;;;;;;20.10;100.00;98571.50;5138790;28;20132;-62
2023/05/26 04:09:55;;;;;;;13.85;6.35;;;;;;;20.31;100.00;98597.09;5138224;27;20055;-63
2023/05/26 04:12:22;;;;;;;8.57;5.85;;;;;;;20.54;100.00;98585.66;5138744;28;20453;-64
2023/05/26 04:14:48;;;;;;;12.88;6.35;;;;;;;20.51;100.00;98608.06;5138669;28;20042;-59
2023/05/26 04:17:14;;;;;;;11.07;6.40;;;;;;;21.02;100.00;98636.63;5138742;27;20467;-56
2023/05/26 04:19:41;;;;;;;9.02;6.07;;;;;;;21.42;100.00;98675.16;5138543;28;20051;-55
2023/05/26 04:22:07;;;;;;;10.38;6.25;;;;;;;21.29;100.00;98674.38;5138602;28;20134;-58
2023/05/26 04:24:32;;;;;;;7.53;5.72;;;;;;;21.35;100.00;98701.28;5138455;28;20428;-55
2023/05/26 04:26:58;;;;;;;14.90;7.80;;;;;;;21.75;100.00;98703.50;5138462;28;20146;-53
2023/05/26 04:29:25;;;;;;;9.93;5.55;;;;;;;21.75;100.00;98713.88;5138362;28;20043;-55
2023/05/26 04:31:51;;;;;;;12.85;7.15;;;;;;;21.90;100.00;98748.44;5138521;28;20055;-59
2023/05/26 04:34:21;;;;;;;12.43;5.45;;;;;;;22.31;100.00;98747.41;5138482;28;20107;-61
2023/05/26 04:36:48;;;;;;;9.25;5.63;;;;;;;22.62;100.00;98777.38;5138822;27;20047;-57
2023/05/26 04:39:14;;;;;;;9.85;5.88;;;;;;;22.84;100.00;98813.69;5139173;28;20059;-59
2023/05/26 04:41:41;;;;;;;16.63;6.75;;;;;;;23.06;100.00;98816.50;5138857;28;20043;-64
2023/05/26 04:44:07;;;;;;;6.78;5.50;;;;;;;22.99;100.00;98805.56;5138839;28;20051;-64
2023/05/26 04:46:37;;;;;;;18.70;6.07;;;;;;;22.71;100.00;98813.78;5138151;28;20366;-61
2023/05/26 04:49:03;;;;;;;8.55;5.82;;;;;;;23.04;100.00;98835.75;5138329;28;20047;-54
2023/05/26 04:51:32;;;;;;;7.45;5.60;;;;;;;22.74;100.00;98845.63;5138107;28;20194;-62
2023/05/26 04:53:59;;;;;;;10.60;5.32;;;;;;;23.25;100.00;98851.69;5137785;28;20092;-53
2023/05/26 04:56:26;;;;;;;10.85;5.82;;;;;;;23.89;100.00;98870.78;5137812;27;20047;-54
2023/05/26 04:58:52;;;;;;;8.43;7.20;;;;;;;23.80;100.00;98870.75;5138191;28;20051;-62
2023/05/26 05:01:18;;;;;;;9.43;6.97;;;;;;;24.03;100.00;98869.41;5137737;28;20142;-58
2023/05/26 05:03:44;;;;;;;8.07;6.75;;;;;;;24.28;100.00;98881.56;5137992;28;20086;-56
2023/05/26 05:06:10;;;;;;;12.40;5.70;;;;;;;24.72;100.00;98890.47;5137650;27;20328;-63
2023/05/26 05:08:37;;;;;;;8.02;5.55;;;;;;;24.87;100.00;98910.25;5137504;28;20051;-58
2023/05/26 05:11:03;;;;;;;12.38;6.65;;;;;;;24.84;100.00;98908.41;5137774;28;20055;-58
2023/05/26 05:13:29;;;;;;;9.07;6.63;;;;;;;25.30;100.00;98913.97;5137672;28;20050;-62
2023/05/26 05:15:55;;;;;;;16.58;6.82;;;;;;;25.55;100.00;98924.00;5137635;27;20047;-55
2023/05/26 05:18:21;;;;;;;12.68;6.97;;;;;;;25.72;100.00;98932.84;5137482;28;20051;-53
2023/05/26 05:20:47;;;;;;;14.35;7.43;;;;;;;25.66;100.00;98943.94;5137022;27;20062;-62
2023/05/26 05:23:13;;;;;;;12.55;6.80;;;;;;;25.80;100.00;98939.72;5136746;28;20107;-64
2023/05/26 05:25:41;;;;;;;8.93;6.68;;;;;;;26.06;100.00;98948.50;5137665;28;20047;-59
2023/05/26 05:28:07;;;;;;;7.72;6.47;;;;;;;25.64;100.00;98946.44;5137385;28;20047;-61
2023/05/26 05:30:33;;;;;;;13.65;6.55;;;;;;;25.74;100.00;98953.56;5137528;28;20137;-65
2023/05/26 05:32:59;;;;;;;14.05;7.03;;;;;;;25.91;100.00;98950.41;5137487;28;20073;-62
2023/05/26 05:35:25;;;;;;;12.18;6.93;;;;;;;25.99;100.00;98952.44;5137209;27;20079;-55
2023/05/26 05:37:56;;;;;;;10.73;6.45;;;;;;;26.06;100.00;98954.09;5137416;28;20104;-60
2023/05/26 05:40:22;;;;;;;9.20;6.40;;;;;;;26.52;100.00;98959.47;5137212;28;20047;-66
2023/05/26 05:42:48;;;;;;;11.95;6.97;;;;;;;26.21;100.00;98963.38;5137234;27;20154;-58
2023/05/26 05:45:15;;;;;;;16.00;6.90;;;;;;;26.61;100.00;98972.69;5137312;28;20043;-53
2023/05/26 05:47:41;;;;;;;10.05;6.90;;;;;;;26.41;100.00;98970.44;5137079;28;20051;-57
2023/05/26 05:50:08;;;;;;;8.27;6.57;;;;;;;26.90;100.00;98969.97;5136948;28;20107;-66
2023/05/26 05:52:34;;;;;;;9.35;6.20;;;;;;;26.88;97.90;98968.88;5136831;28;20134;-54
2023/05/26 05:55:00;;;;;;;14.85;6.78;;;;;;;26.86;97.09;98972.19;5136869;28;20133;-62
2023/05/26 05:57:26;;;;;;;10.50;6.40;;;;;;;26.40;99.98;98966.09;5136926;28;20438;-65
2023/05/26 05:59:52;;;;;;;12.77;6.85;;;;;;;27.05;95.43;98969.97;5137134;28;20169;-64
2023/05/26 06:02:18;;;;;;;16.42;6.70;;;;;;;26.73;94.19;98974.47;5137001;28;20081;-62
2023/05/26 06:04:45;;;;;;;16.27;6.70;;;;;;;26.96;95.03;98970.09;5136921;27;20141;-64
2023/05/26 06:07:11;;;;;;;14.85;6.97;;;;;;;26.65;97.49;98970.47;5136585;27;20329;-57
2023/05/26 06:09:36;;;;;;;11.52;6.35;;;;;;;27.22;96.92;98978.78;5136626;28;20083;-57
2023/05/26 06:12:03;;;;;;;13.65;6.22;;;;;;;27.48;94.45;98978.97;5136850;28;20052;-59
2023/05/26 06:14:29;;;;;;;13.00;6.03;;;;;;;27.38;92.23;98983.16;5136987;27;20096;-54
2023/05/26 06:16:55;;;;;;;7.60;5.88;;;;;;;27.66;90.63;98981.63;5136520;28;20388;-56
2023/05/26 06:19:21;;;;;;;22.05;7.03;;;;;;;27.99;88.93;98993.94;5136634;28;20062;-57
2023/05/26 06:21:49;;;;;;;10.82;5.93;;;;;;;28.09;88.93;98990.53;5136542;28;20138;-52
2023/05/26 06:24:15;;;;;;;14.73;5.90;;;;;;;28.24;85.07;98995.34;5136435;28;20051;-56
2023/05/26 06:26:41;;;;;;;15.43;6.32;;;;;;;28.51;84.61;98994.97;5136758;28;20055;-53
2023/05/26 06:29:07;;;;;;;8.98;5.18;;;;;;;28.37;81.46;99001.44;5136549;28;20199;-53
2023/05/26 06:31:33;;;;;;;12.88;6.07;;;;;;;27.68;86.33;99000.84;5136381;28;20074;-51
2023/05/26 06:33:59;;;;;;;8.23;5.15;;;;;;;28.32;83.70;99002.91;5139159;27;20108;-70
2023/05/26 06:36:26;;;;;;;14.68;5.32;;;;;;;28.35;80.36;99012.41;5140860;27;20465;-69
2023/05/26 06:38:51;;;;;;;14.63;5.57;;;;;;;28.72;76.84;99018.31;5140902;28;20134;-58
2023/05/26 06:41:17;;;;;;;10.85;5.28;;;;;;;29.02;77.79;99019.00;5141610;27;20051;-67
2023/05/26 06:43:43;;;;;;;30.92;6.65;;;;;;;29.35;76.81;99009.34;5141183;28;20061;-63
2023/05/26 06:46:09;;;;;;;12.65;5.30;;;;;;;29.65;75.31;99011.97;5142837;27;20134;-59
2023/05/26 06:48:35;;;;;;;11.52;5.72;;;;;;;29.59;75.75;99011.09;5144784;28;20043;-55
2023/05/26 06:51:01;;;;;;;12.55;6.10;;;;;;;28.69;76.55;99004.44;5145573;28;20451;-59
2023/05/26 06:53:27;;;;;;;13.20;5.55;;;;;;;28.77;77.87;99003.53;5143426;27;20141;-54
2023/05/26 06:55:53;;;;;;;12.32;5.72;;;;;;;29.19;77.15;99009.94;5140488;28;20043;-56
2023/05/26 06:58:20;;;;;;;8.70;5.25;;;;;;;29.24;77.43;99009.22;5140905;28;20076;-56
2023/05/26 07:00:56;;;;;;;10.13;5.15;;;;;;;29.83;73.90;99005.97;5141344;28;20215;-56
2023/05/26 07:03:22;;;;;;;8.43;5.35;;;;;;;30.16;73.88;99016.00;5140250;27;20142;-57
2023/05/26 07:05:48;;;;;;;11.88;4.70;;;;;;;30.44;72.03;99022.63;5139745;27;20051;-57
2023/05/26 07:08:15;;;;;;;8.80;5.22;;;;;;;30.70;71.80;99027.41;5140564;28;20047;-59
2023/05/26 07:10:41;;;;;;;10.35;5.07;;;;;;;31.03;68.93;99034.53;5139619;28;20047;-58
2023/05/26 07:13:07;;;;;;;10.38;4.65;;;;;;;31.10;67.96;99031.19;5139671;28;20047;-57
2023/05/26 07:15:33;;;;;;;9.88;5.25;;;;;;;30.93;68.39;99023.41;5139353;28;20139;-57
2023/05/26 07:17:59;;;;;;;11.25;5.47;;;;;;;31.17;68.51;99034.28;5139396;28;20329;-56
2023/05/26 07:20:25;;;;;;;10.65;4.78;;;;;;;31.18;69.54;99026.56;5139423;28;20043;-63
2023/05/26 07:22:51;;;;;;;8.40;4.45;;;;;;;31.14;67.27;99037.38;5139076;28;20349;-64
2023/05/26 07:25:17;;;;;;;15.43;5.35;;;;;;;31.36;66.93;99039.53;5139109;28;20388;-64
2023/05/26 07:27:44;;;;;;;14.02;5.38;;;;;;;30.95;66.49;99037.03;5139306;28;20051;-60
2023/05/26 07:30:11;;;;;;;10.75;5.30;;;;;;;30.57;67.89;99041.22;5138878;28;20046;-55
2023/05/26 07:32:37;;;;;;;14.35;5.43;;;;;;;30.53;69.47;99030.13;5139013;28;20059;-61
2023/05/26 07:35:03;;;;;;;16.00;5.05;;;;;;;31.31;68.10;99037.44;5138830;27;20062;-57
2023/05/26 07:37:29;;;;;;;15.48;5.90;;;;;;;31.77;65.55;99039.84;5139053;28;20043;-60
2023/05/26 07:39:56;;;;;;;13.05;4.80;;;;;;;31.93;64.88;99046.84;5139129;27;20051;-55
2023/05/26 07:42:22;;;;;;;15.68;5.28;;;;;;;31.82;65.78;99033.44;5139311;28;20362;-58
2023/05/26 07:44:49;;;;;;;13.85;4.45;;;;;;;31.61;65.60;99032.09;5138194;27;20047;-62
2023/05/26 07:47:15;;;;;;;13.93;5.20;;;;;;;31.45;66.34;99033.63;5138901;27;20134;-57
2023/05/26 07:49:41;;;;;;;9.90;5.10;;;;;;;31.14;65.84;99031.72;5138836;28;20490;-56
2023/05/26 07:52:07;;;;;;;11.32;4.57;;;;;;;30.78;68.94;99031.31;5138836;28;20050;-56
2023/05/26 07:54:33;;;;;;;19.35;6.57;;;;;;;30.99;65.67;99033.97;5139943;28;20044;-57
2023/05/26 07:56:59;;;;;;;14.13;5.47;;;;;;;31.46;65.60;99040.06;5139176;28;20487;-62
2023/05/26 07:59:25;;;;;;;8.77;5.18;;;;;;;31.39;65.50;99039.28;5138485;28;20428;-59
2023/05/26 08:01:52;;;;;;;8.90;4.45;;;;;;;31.15;66.29;99030.41;5138695;28;20136;-59
2023/05/26 08:04:18;;;;;;;9.50;5.20;;;;;;;30.81;68.14;99032.34;5138819;28;20065;-60
2023/05/26 08:06:44;;;;;;;15.65;5.20;;;;;;;30.98;69.65;99030.38;5138585;27;20332;-64
2023/05/26 08:09:10;;;;;;;8.50;4.80;;;;;;;31.25;66.90;99028.91;5138654;28;20100;-63
2023/05/26 08:11:37;;;;;;;12.82;5.03;;;;;;;32.00;65.89;99032.16;5138657;27;20116;-62
2023/05/26 08:14:03;;;;;;;9.65;4.95;;;;;;;31.87;65.19;99029.84;5138467;28;20076;-59
2023/05/26 08:16:29;;;;;;;15.40;4.68;;;;;;;31.98;67.21;99031.88;5138442;27;20141;-60
2023/05/26 08:18:55;;;;;;;10.25;4.63;;;;;;;32.02;65.94;99031.63;5138267;28;20339;-63
2023/05/26 08:21:21;;;;;;;9.95;4.70;;;;;;;31.90;64.34;99035.78;5138739;28;20074;-62
2023/05/26 08:23:47;;;;;;;7.85;4.38;;;;;;;31.64;63.54;99037.50;5139157;28;20143;-61
2023/05/26 08:26:13;;;;;;;10.77;4.05;;;;;;;31.33;63.86;99046.22;5140596;28;20105;-59
2023/05/26 08:28:39;;;;;;;9.40;4.40;;;;;;;31.64;64.13;99031.09;5140477;28;20073;-54
2023/05/26 08:31:05;;;;;;;15.43;4.35;;;;;;;32.16;63.58;99032.66;5138571;28;20051;-58
2023/05/26 08:33:31;;;;;;;6.90;5.30;;;;;;;31.37;63.59;99035.41;5138948;28;20047;-65
2023/05/26 08:35:58;;;;;;;6.72;4.70;;;;;;;31.42;64.55;99037.47;5138008;27;20061;-63
2023/05/26 08:38:24;;;;;;;9.93;4.63;;;;;;;31.63;64.01;99035.22;5137829;28;20419;-64
2023/05/26 08:40:55;;;;;;;10.30;4.25;;;;;;;32.09;63.84;99034.75;5137627;28;20078;-59
2023/05/26 08:43:28;;;;;;;11.57;5.18;;;;;;;31.96;63.11;99030.88;5137717;28;20047;-55
2023/05/26 08:45:59;;;;;;;8.80;5.00;;;;;;;32.06;63.17;99024.44;5137735;28;20084;-64
2023/05/26 08:48:25;;;;;;;9.82;5.03;;;;;;;31.71;63.04;99019.22;5137885;28;20078;-54
2023/05/26 08:50:55;;;;;;;13.13;4.93;;;;;;;31.34;66.06;99008.88;5138272;28;20286;-59
2023/05/26 08:53:23;;;;;;;13.75;4.88;;;;;;;31.83;65.50;99014.34;5138411;28;20328;-57
2023/05/26 08:55:49;;;;;;;14.48;4.88;;;;;;;31.95;64.87;99009.47;5137799;27;20051;-55
2023/05/26 08:58:17;;;;;;;12.18;4.88;;;;;;;31.85;65.17;99011.75;5138048;28;20050;-54
2023/05/26 09:00:45;;;;;;;9.35;5.13;;;;;;;30.74;67.61;98996.03;5137937;27;20081;-55
2023/05/26 09:03:11;;;;;;;9.52;4.82;;;;;;;31.11;66.77;98999.53;5137806;28;20142;-57
2023/05/26 09:05:37;;;;;;;12.95;4.78;;;;;;;31.42;68.79;98997.81;5137703;27;20054;-60
2023/05/26 09:08:04;;;;;;;15.45;5.00;;;;;;;31.70;68.56;98997.09;5137708;28;20047;-55
2023/05/26 09:10:32;;;;;;;14.07;5.20;;;;;;;31.48;69.07;98992.16;5137682;28;20499;-61
2023/05/26 09:13:03;;;;;;;11.23;5.10;;;;;;;31.04;68.63;98991.53;5137583;28;20130;-58
2023/05/26 09:15:29;;;;;;;9.93;5.30;;;;;;;31.29;69.03;99001.13;5137870;28;20051;-56
2023/05/26 09:18:01;;;;;;;8.93;5.18;;;;;;;29.63;73.89;98992.69;5137650;28;20062;-60
2023/05/26 09:20:28;;;;;;;13.10;5.22;;;;;;;28.65;80.32;98972.84;5137786;28;20078;-58
2023/05/26 09:22:56;;;;;;;11.05;5.40;;;;;;;28.21;84.81;98968.91;5137602;28;20051;-56
2023/05/26 09:25:24;;;;;;;14.10;5.85;;;;;;;28.32;85.68;98973.91;5137466;28;20143;-62
2023/05/26 09:27:50;;;;;;;12.48;5.00;;;;;;;28.83;81.72;98975.41;5137441;27;20046;-56
2023/05/26 09:30:16;;;;;;;15.00;5.90;;;;;;;28.67;82.56;98976.72;5137187;28;20059;-53
2023/05/26 09:32:45;;;;;;;7.72;5.03;;;;;;;27.53;86.62;98961.44;5137318;27;20137;-58
2023/05/26 09:35:11;;;;;;;7.82;5.38;;;;;;;27.18;89.41;98955.69;5137315;27;20051;-54
2023/05/26 09:37:37;;;;;;;8.23;5.25;;;;;;;27.07;93.56;98956.22;5137231;28;20331;-55
2023/05/26 09:40:08;;;;;;;20.42;6.00;;;;;;;27.02;100.00;98931.56;5137002;28;20401;-59
2023/05/26 09:42:36;;;;;;;14.40;6.07;;;;;;;27.18;100.00;98933.16;5137355;28;20057;-56
2023/05/26 09:45:04;;;;;;;13.40;5.88;;;;;;;27.46;94.55;98947.75;5137369;27;20051;-60
2023/05/26 09:47:32;;;;;;;11.73;5.25;;;;;;;28.06;90.96;98945.66;5137174;28;20141;-61
2023/05/26 09:50:03;;;;;;;9.73;5.40;;;;;;;28.85;86.84;98950.25;5137337;28;20073;-54
2023/05/26 09:52:29;;;;;;;11.32;5.25;;;;;;;29.17;84.10;98956.81;5136895;28;20047;-56
2023/05/26 09:54:55;;;;;;;13.38;5.90;;;;;;;28.56;86.47;98952.00;5137151;28;20055;-58
2023/05/26 09:57:22;;;;;;;11.00;5.10;;;;;;;28.61;87.31;98942.81;5137072;28;20385;-60
2023/05/26 09:59:53;;;;;;;11.43;5.72;;;;;;;28.21;88.04;98935.09;5136826;28;20043;-62
2023/05/26 10:02:22;;;;;;;10.35;5.35;;;;;;;28.11;89.13;98954.16;5136727;28;20096;-63
2023/05/26 10:04:49;;;;;;;10.02;5.22;;;;;;;28.37;84.79;98953.50;5136717;28;20083;-62
2023/05/26 10:07:16;;;;;;;10.18;5.05;;;;;;;28.91;82.66;98953.94;5137157;27;20432;-58
2023/05/26 10:09:44;;;;;;;7.93;5.25;;;;;;;29.18;81.83;98957.56;5140597;28;20488;-53
2023/05/26 10:12:12;;;;;;;12.52;6.22;;;;;;;28.29;81.00;98955.16;5140662;27;20332;-58
2023/05/26 10:14:38;;;;;;;12.85;4.80;;;;;;;28.79;79.29;98952.25;5140574;28;20065;-56
2023/05/26 10:17:04;;;;;;;8.80;5.25;;;;;;;29.49;77.79;98962.47;5140455;28;20115;-62
2023/05/26 10:19:31;;;;;;;7.18;4.85;;;;;;;29.85;76.80;98963.06;5140520;28;20051;-56
2023/05/26 10:22:04;;;;;;;7.53;4.88;;;;;;;29.26;75.20;98970.00;5140239;28;20248;-61
2023/05/26 10:24:35;;;;;;;15.25;5.30;;;;;;;29.40;77.77;98968.31;5140222;28;20492;-58
2023/05/26 10:27:06;;;;;;;12.32;5.45;;;;;;;29.46;76.96;98961.47;5140424;27;20057;-58
2023/05/26 10:29:50;;;;;;;8.68;4.47;;;;;;;29.69;77.52;98953.97;5140388;27;20062;-54
2023/05/26 10:32:46;;;;;;;14.85;5.63;;;;;;;29.98;75.55;98963.44;5140151;28;20133;-65
2023/05/26 10:35:23;;;;;;;19.65;5.82;;;;;;;30.21;76.65;98962.31;5140131;27;20138;-63
2023/05/26 10:37:50;;;;;;;9.35;5.00;;;;;;;29.78;77.17;98962.25;5139940;28;20095;-54
2023/05/26 10:40:27;;;;;;;8.60;5.13;;;;;;;29.47;80.83;98948.88;5139917;27;20138;-60
2023/05/26 10:42:58;;;;;;;7.13;4.88;;;;;;;29.66;80.31;98940.84;5139783;28;20055;-62
2023/05/26 10:45:24;;;;;;;10.38;4.97;;;;;;;29.78;79.50;98947.34;5139324;28;20133;-57
2023/05/26 10:47:50;;;;;;;7.78;4.32;;;;;;;29.75;78.26;98942.69;5139999;28;20065;-63
2023/05/26 10:50:15;;;;;;;10.95;4.90;;;;;;;29.93;78.11;98950.03;5139649;28;20051;-61
2023/05/26 10:52:50;;;;;;;8.10;5.32;;;;;;;29.55;79.02;98941.50;5139469;28;20317;-60
2023/05/26 10:55:28;;;;;;;8.05;4.25;;;;;;;29.05;82.98;98936.16;5139852;28;20047;-56
2023/05/26 10:57:55;;;;;;;9.13;4.80;;;;;;;29.07;82.57;98936.44;5139851;27;20058;-56
2023/05/26 11:00:24;;;;;;;12.98;4.93;;;;;;;28.92;84.28;98935.72;5139580;28;20058;-53
2023/05/26 11:02:50;;;;;;;20.92;5.85;;;;;;;28.85;86.38;98920.00;5139746;28;20187;-63
2023/05/26 11:05:31;;;;;;;8.75;5.13;;;;;;;28.63;82.85;98925.41;5139714;27;20359;-62
2023/05/26 11:07:58;;;;;;;10.05;5.43;;;;;;;28.31;83.80;98922.41;5136317;28;20055;-62
2023/05/26 11:10:25;;;;;;;7.22;5.55;;;;;;;27.90;87.35;98927.22;5139718;28;20051;-53
2023/05/26 11:12:54;;;;;;;16.08;5.25;;;;;;;27.73;87.84;98917.72;5139717;28;20050;-59
2023/05/26 11:15:28;;;;;;;12.77;4.88;;;;;;;27.49;93.98;98907.38;5139687;28;20137;-61
2023/05/26 11:17:56;;;;;;;15.30;5.35;;;;;;;27.30;92.89;98897.56;5139520;28;20373;-56
2023/05/26 11:20:23;;;;;;;9.18;5.20;;;;;;;27.53;92.55;98916.38;5138216;27;20340;-61
2023/05/26 11:22:51;;;;;;;8.82;5.47;;;;;;;27.34;95.65;98896.09;5139332;28;20332;-52
2023/05/26 11:25:18;;;;;;;17.17;5.70;;;;;;;27.11;95.38;98902.56;5139828;28;20101;-54